Memphis, TN (38125)

3:49 AM CDT on September 21, 2014 (GMT -0500)
1 SE Shelby County | Change Station
CLOSE
Current Station
Personal Weather Station
Location: Memphis, TN
Elevation: 372 ft
Nearby Weather Stations

Elev 372 ft 35.02 °N, 89.82 °W | Updated 7 minutes ago

Clear
Clear
70.0 °F
Feels Like 70.0 °F
N
0.0
Wind Variable Wind from SW
Gusts 0.0 mph

Today
High -- | Low -- °F
--% Chance of Precip.
Yesterday
High -- | Low -- °F
Precip. -- in
6:46 AM 6:57 PM
Waning Crescent, 8% visible
Pressure 30.00 in
Visibility 6.0 miles
Clouds Clear
Dew Point 67 °F
Humidity 91%
Rainfall 0.00 in
Snow Depth Not available.
UV 0 out of 12
Pollen 8.60 out of 12
Ozone Good
PM2.5 Moderate
Flu Activity Not available.
METAR KOLV 210835Z AUTO 19004KT 6SM CLR 19/19 A3000 RMK A01 P000

More Conditions Fewer Conditions

Pressure 30.00 in
Visibility 6.0 miles
Clouds Clear
Dew Point 67 °F
Humidity 91%
Rainfall 0.00 in
Snow Depth Not available.
UV 0 out of 12
Pollen 8.60 out of 12
Ozone Good
PM2.5 Moderate
Flu Activity Not available.
METAR KOLV 210835Z AUTO 19004KT 6SM CLR 19/19 A3000 RMK A01 P000

More Conditions Fewer Conditions

10-Day Weather Forecast

Almanac

Astronomy

Sep. 21, 2014 Rise Set
Actual Time 6:46 AM CDT 6:57 PM CDT
Civil Twilight 6:21 AM CDT 7:22 PM CDT
Nautical Twilight 5:51 AM CDT 7:52 PM CDT
Astronomical Twilight 5:21 AM CDT 8:21 PM CDT
Moon 4:24 AM CDT 5:30 PM CDT
Length of Visible Light 13h 01m
Length of Day
12h 10m
Tomorrow will be 2m 10s shorter.
Waning Crescent, 8% of the Moon is Illuminated
Today
Waning Crescent
Sep 24
New
Oct 1
First Quarter
Oct 8
Full
Oct 15
Last Quarter

Today's Extremes

State Highs State Lows

Community

WunderPhotos

Upload Photos

1,755,100 photos uploaded!

Nearby

Air Quality

  Air Quality AQ Index Pollutant
Yesterday Moderate
PM2.5
Yesterday Good
OZONE
Current Moderate
PM2.5
Current Good
OZONE
Sunday Good
OZONE
Sunday Good
PM2.5

Snow Depth

Station Depth Elevation
No new snow has been reported.

Earthquake Activity

City Distance Mag. Time & Date
No recent earthquake activity has been reported nearby.
Minimum magnitude displayed is 2.5.

Coastal Water Temperatures

Place Temperature
No Stations Reporting

Nearby Weather Stations